Time;durP1;ratioP1;P1;durP2;ratioP2;P2;SDS_P1;SDS_P2;PMS_P1;PMS_P2;Temp;Humidity;BMP_temperature;BMP_pressure;BME280_temperature;BME280_humidity;BME280_pressure;Samples;Min_cycle;Max_cycle;Signal;HPM_P1;HPM_P2
2023/09/20 00:02:51;;;;;;;2.00;1.27;;;;;;;;;;6173231;28;20046;-80
2023/09/20 00:05:54;;;;;;;3.88;1.42;;;;;;;;;;6176227;28;20050;-80
2023/09/20 00:08:56;;;;;;;4.28;1.40;;;;;;;;;;6179115;28;20061;-79
2023/09/20 00:11:59;;;;;;;5.97;1.65;;;;;;;;;;6170557;28;20073;-79
2023/09/20 00:15:00;;;;;;;3.58;1.42;;;;;;;;;;6171093;28;20079;-80
2023/09/20 00:18:02;;;;;;;3.90;1.33;;;;;;;;;;6178951;28;20046;-79
2023/09/20 00:21:04;;;;;;;3.25;1.35;;;;;;;;;;6164811;28;20046;-79
2023/09/20 00:24:06;;;;;;;1.83;1.50;;;;;;;;;;6178897;28;20065;-79
2023/09/20 00:27:08;;;;;;;4.28;1.30;;;;;;;;;;6170417;28;20042;-79
2023/09/20 00:30:14;;;;;;;3.08;1.30;;;;;;;;;;6170905;28;20057;-79
2023/09/20 00:33:15;;;;;;;2.30;1.50;;;;;;;;;;6163939;28;20035;-79
2023/09/20 00:36:20;;;;;;;5.15;1.50;;;;;;;;;;6162129;28;20042;-80
2023/09/20 00:39:23;;;;;;;2.03;1.45;;;;;;;;;;6177912;28;20047;-79
2023/09/20 00:42:27;;;;;;;3.83;1.63;;;;;;;;;;6173006;28;20362;-79
2023/09/20 00:45:29;;;;;;;4.55;1.70;;;;;;;;;;6166958;28;20050;-79
2023/09/20 00:48:31;;;;;;;5.22;1.70;;;;;;;;;;6159583;28;20057;-79
2023/09/20 00:51:33;;;;;;;2.75;1.38;;;;;;;;;;6161911;28;20058;-79
2023/09/20 00:54:35;;;;;;;3.90;1.75;;;;;;;;;;6169935;28;20425;-79
2023/09/20 00:57:37;;;;;;;2.67;1.63;;;;;;;;;;6166012;28;20054;-80
2023/09/20 01:00:40;;;;;;;3.28;1.80;;;;;;;;;;6169100;28;20070;-80
2023/09/20 01:03:43;;;;;;;4.13;1.42;;;;;;;;;;6159731;28;20531;-79
2023/09/20 01:06:49;;;;;;;2.55;1.48;;;;;;;;;;6175269;28;20053;-79
2023/09/20 01:09:51;;;;;;;4.82;1.83;;;;;;;;;;6170920;28;20504;-79
2023/09/20 01:12:56;;;;;;;4.82;1.60;;;;;;;;;;6168716;28;20047;-79
2023/09/20 01:16:01;;;;;;;5.75;1.52;;;;;;;;;;6165819;28;20039;-79
2023/09/20 01:19:04;;;;;;;4.57;1.50;;;;;;;;;;6159990;28;20497;-79
2023/09/20 01:22:07;;;;;;;1.80;1.40;;;;;;;;;;6173383;28;20088;-79
2023/09/20 01:25:18;;;;;;;2.67;1.30;;;;;;;;;;6166408;28;20051;-79
2023/09/20 01:28:20;;;;;;;2.75;1.38;;;;;;;;;;6180818;28;20121;-79
2023/09/20 01:31:22;;;;;;;3.10;1.80;;;;;;;;;;6165778;28;20130;-80
2023/09/20 01:34:24;;;;;;;3.65;1.65;;;;;;;;;;6175294;28;20073;-79
2023/09/20 01:37:26;;;;;;;3.45;1.27;;;;;;;;;;6166490;28;20074;-80
2023/09/20 01:40:28;;;;;;;2.90;1.50;;;;;;;;;;6154591;28;20069;-80
2023/09/20 01:43:30;;;;;;;4.68;1.60;;;;;;;;;;6169740;28;20089;-80
2023/09/20 01:46:33;;;;;;;3.92;1.67;;;;;;;;;;6168108;28;20053;-79
2023/09/20 01:49:35;;;;;;;3.58;1.67;;;;;;;;;;6167067;28;20046;-79
2023/09/20 01:52:37;;;;;;;2.63;1.60;;;;;;;;;;6167015;28;20046;-79
2023/09/20 01:55:42;;;;;;;2.57;1.53;;;;;;;;;;6156527;28;20053;-80
2023/09/20 01:58:44;;;;;;;3.78;1.98;;;;;;;;;;6180474;28;20166;-79
2023/09/20 02:01:48;;;;;;;2.67;1.77;;;;;;;;;;6179582;28;20047;-79
2023/09/20 02:04:50;;;;;;;4.63;1.52;;;;;;;;;;6159510;28;20206;-79
2023/09/20 02:07:54;;;;;;;1.95;1.42;;;;;;;;;;6176091;28;20070;-79
2023/09/20 02:10:56;;;;;;;2.28;1.65;;;;;;;;;;6178071;28;20047;-79
2023/09/20 02:13:58;;;;;;;4.23;1.77;;;;;;;;;;6176495;28;20046;-80
2023/09/20 02:17:01;;;;;;;2.03;1.70;;;;;;;;;;6186518;28;20046;-79
2023/09/20 02:20:11;;;;;;;2.95;1.75;;;;;;;;;;6181579;28;20093;-79
2023/09/20 02:23:13;;;;;;;4.90;1.77;;;;;;;;;;6170921;28;20043;-79
2023/09/20 02:26:18;;;;;;;3.15;1.52;;;;;;;;;;6171874;28;20043;-79
2023/09/20 02:29:22;;;;;;;3.08;1.60;;;;;;;;;;6153855;28;20062;-79
2023/09/20 02:32:24;;;;;;;2.80;1.48;;;;;;;;;;6175102;28;20539;-79
2023/09/20 02:35:28;;;;;;;1.65;1.55;;;;;;;;;;6173482;28;20047;-79
2023/09/20 02:38:30;;;;;;;2.63;1.55;;;;;;;;;;6179254;28;20130;-79
2023/09/20 02:41:32;;;;;;;3.13;1.50;;;;;;;;;;6170122;28;20042;-79
2023/09/20 02:44:36;;;;;;;3.85;1.60;;;;;;;;;;6174911;28;20039;-79
2023/09/20 02:47:39;;;;;;;3.53;1.65;;;;;;;;;;6172282;28;20520;-79
2023/09/20 02:50:41;;;;;;;2.85;1.73;;;;;;;;;;6174827;28;20046;-79
2023/09/20 02:53:43;;;;;;;3.00;1.50;;;;;;;;;;6172628;28;20058;-80
2023/09/20 02:56:45;;;;;;;3.58;1.60;;;;;;;;;;6170957;28;20043;-79
2023/09/20 02:59:47;;;;;;;2.85;1.63;;;;;;;;;;6172351;28;20065;-79
2023/09/20 03:02:51;;;;;;;3.95;1.70;;;;;;;;;;6166180;28;20186;-79
2023/09/20 03:05:53;;;;;;;3.30;1.90;;;;;;;;;;6173857;28;20455;-79
2023/09/20 03:08:57;;;;;;;3.95;1.60;;;;;;;;;;6168996;28;20047;-79
2023/09/20 03:11:59;;;;;;;2.78;1.45;;;;;;;;;;6169305;28;20524;-80
2023/09/20 03:15:04;;;;;;;2.13;1.63;;;;;;;;;;6164552;28;20039;-80
2023/09/20 03:18:09;;;;;;;3.03;2.00;;;;;;;;;;6147544;28;20043;-80
2023/09/20 03:21:11;;;;;;;5.40;1.77;;;;;;;;;;6172781;28;20123;-80
2023/09/20 03:24:14;;;;;;;3.30;2.28;;;;;;;;;;6179075;28;20105;-80
2023/09/20 03:27:15;;;;;;;5.13;1.88;;;;;;;;;;6160454;28;20053;-80
2023/09/20 03:30:20;;;;;;;3.13;1.70;;;;;;;;;;6176491;28;20050;-80
2023/09/20 03:33:23;;;;;;;2.65;1.67;;;;;;;;;;6172225;28;20035;-80
2023/09/20 03:36:25;;;;;;;3.42;1.80;;;;;;;;;;6178973;28;20556;-80
2023/09/20 03:39:27;;;;;;;3.50;1.60;;;;;;;;;;6172167;28;20416;-80
2023/09/20 03:42:31;;;;;;;3.72;1.52;;;;;;;;;;6160818;28;20050;-80
2023/09/20 03:45:33;;;;;;;2.40;1.52;;;;;;;;;;6171998;28;20035;-79
2023/09/20 03:48:34;;;;;;;2.95;1.90;;;;;;;;;;6173153;28;20046;-80
2023/09/20 03:51:36;;;;;;;1.92;1.60;;;;;;;;;;6167121;28;20051;-80
2023/09/20 03:54:38;;;;;;;3.40;2.20;;;;;;;;;;6168115;28;20035;-79
2023/09/20 03:57:40;;;;;;;2.92;1.90;;;;;;;;;;6165543;28;20165;-80
2023/09/20 04:00:45;;;;;;;6.78;2.60;;;;;;;;;;6170026;28;20088;-81
2023/09/20 04:03:47;;;;;;;5.88;2.40;;;;;;;;;;6170036;28;20463;-80
2023/09/20 04:06:49;;;;;;;4.18;2.17;;;;;;;;;;6176866;28;20092;-79
2023/09/20 04:09:51;;;;;;;6.65;2.60;;;;;;;;;;6167005;28;20073;-80
2023/09/20 04:12:53;;;;;;;5.43;2.60;;;;;;;;;;6170682;28;20034;-79
2023/09/20 04:15:55;;;;;;;5.57;2.30;;;;;;;;;;6164466;28;20050;-80
2023/09/20 04:18:57;;;;;;;5.28;2.20;;;;;;;;;;6177827;28;20602;-81
2023/09/20 04:22:04;;;;;;;4.57;1.92;;;;;;;;;;6172062;28;20045;-81
2023/09/20 04:25:06;;;;;;;6.00;2.05;;;;;;;;;;6167289;28;20122;-80
2023/09/20 04:28:09;;;;;;;3.38;2.15;;;;;;;;;;6178020;28;20053;-81
2023/09/20 04:31:11;;;;;;;5.63;2.15;;;;;;;;;;6179802;28;20092;-80
2023/09/20 04:34:15;;;;;;;4.30;2.00;;;;;;;;;;6175515;28;20528;-80
2023/09/20 04:37:16;;;;;;;6.53;2.10;;;;;;;;;;6173249;28;20421;-81
2023/09/20 04:40:19;;;;;;;4.40;1.87;;;;;;;;;;6180599;28;20264;-80
2023/09/20 04:43:21;;;;;;;3.97;1.95;;;;;;;;;;6180743;28;20420;-79
2023/09/20 04:46:23;;;;;;;4.93;2.35;;;;;;;;;;6171837;28;20122;-79
2023/09/20 04:49:25;;;;;;;3.87;2.23;;;;;;;;;;6158410;28;20051;-79
2023/09/20 04:52:26;;;;;;;3.63;2.10;;;;;;;;;;6179650;28;20823;-79
2023/09/20 04:55:29;;;;;;;3.53;2.20;;;;;;;;;;6169698;28;20042;-79
2023/09/20 04:58:31;;;;;;;4.97;2.13;;;;;;;;;;6157455;28;20636;-79
2023/09/20 05:01:33;;;;;;;5.70;2.40;;;;;;;;;;6177478;28;20058;-80
2023/09/20 05:04:35;;;;;;;4.43;2.25;;;;;;;;;;6169178;28;20493;-79
2023/09/20 05:07:36;;;;;;;4.50;2.65;;;;;;;;;;6171281;28;20042;-79
2023/09/20 05:10:38;;;;;;;7.28;2.75;;;;;;;;;;6162524;28;20058;-79
2023/09/20 05:13:42;;;;;;;4.90;2.30;;;;;;;;;;6174589;28;20046;-80
2023/09/20 05:16:44;;;;;;;5.82;2.10;;;;;;;;;;6170315;28;20077;-80
2023/09/20 05:19:47;;;;;;;2.42;1.98;;;;;;;;;;6178412;28;20133;-79
2023/09/20 05:22:49;;;;;;;3.58;2.20;;;;;;;;;;6175075;28;20046;-80
2023/09/20 05:25:51;;;;;;;4.43;2.10;;;;;;;;;;6171364;28;20057;-79
2023/09/20 05:28:54;;;;;;;6.38;2.67;;;;;;;;;;6167296;28;20050;-79
2023/09/20 05:31:56;;;;;;;6.50;2.55;;;;;;;;;;6168513;28;20042;-79
2023/09/20 05:34:58;;;;;;;5.00;2.28;;;;;;;;;;6176124;28;20062;-79
2023/09/20 05:37:59;;;;;;;5.65;2.13;;;;;;;;;;6170713;28;20050;-79
2023/09/20 05:41:03;;;;;;;3.85;2.28;;;;;;;;;;6170580;28;20046;-79
2023/09/20 05:44:06;;;;;;;6.72;2.50;;;;;;;;;;6173330;28;20050;-79
2023/09/20 05:47:10;;;;;;;7.63;2.40;;;;;;;;;;6172365;28;20043;-79
2023/09/20 05:50:13;;;;;;;4.05;2.20;;;;;;;;;;6172901;28;20046;-79
2023/09/20 05:53:16;;;;;;;4.10;2.13;;;;;;;;;;6175358;28;20097;-80
2023/09/20 05:56:18;;;;;;;6.25;2.53;;;;;;;;;;6174799;28;20124;-80
2023/09/20 05:59:22;;;;;;;4.95;2.38;;;;;;;;;;6176495;28;20043;-79
2023/09/20 06:02:24;;;;;;;3.75;1.95;;;;;;;;;;6174226;28;20039;-80
2023/09/20 06:05:26;;;;;;;5.00;2.10;;;;;;;;;;6175952;28;20065;-80
2023/09/20 06:08:28;;;;;;;2.47;1.80;;;;;;;;;;6174286;28;20057;-79
2023/09/20 06:11:29;;;;;;;3.55;1.63;;;;;;;;;;6168011;28;20050;-79
2023/09/20 06:14:31;;;;;;;4.25;2.20;;;;;;;;;;6170494;28;20057;-80
2023/09/20 06:17:33;;;;;;;4.55;1.77;;;;;;;;;;6171320;28;20073;-79
2023/09/20 06:20:36;;;;;;;3.92;2.08;;;;;;;;;;6168615;28;20042;-79
2023/09/20 06:23:39;;;;;;;6.05;2.00;;;;;;;;;;6168286;28;20047;-79
2023/09/20 06:26:41;;;;;;;3.70;1.77;;;;;;;;;;6174757;28;20043;-79
2023/09/20 06:29:43;;;;;;;5.55;1.95;;;;;;;;;;6171124;28;20062;-80
2023/09/20 06:32:45;;;;;;;6.97;2.03;;;;;;;;;;6169217;28;20049;-78
2023/09/20 06:35:46;;;;;;;2.45;1.80;;;;;;;;;;6165985;28;20054;-78
2023/09/20 06:38:49;;;;;;;4.30;1.85;;;;;;;;;;6173390;28;20153;-78
2023/09/20 06:41:52;;;;;;;;;;;;;;;;;;6168791;28;20610;-78
2023/09/20 06:44:56;;;;;;;3.13;2.05;;;;;;;;;;6155048;28;19922;-78
2023/09/20 06:47:58;;;;;;;3.65;1.70;;;;;;;;;;6169548;28;20050;-78
2023/09/20 06:51:00;;;;;;;4.18;1.80;;;;;;;;;;6171987;28;20089;-78
2023/09/20 06:54:02;;;;;;;5.35;1.95;;;;;;;;;;6177237;28;20038;-80
2023/09/20 06:57:05;;;;;;;5.28;1.90;;;;;;;;;;6183885;28;20046;-79
2023/09/20 07:00:24;;;;;;;;;;;;;;;;;;6185944;28;20047;-80
2023/09/20 07:03:28;;;;;;;4.53;1.98;;;;;;;;;;6181921;28;19929;-79
2023/09/20 07:06:31;;;;;;;3.63;1.87;;;;;;;;;;6178149;28;20062;-80
2023/09/20 07:09:34;;;;;;;4.38;2.00;;;;;;;;;;6180865;28;20054;-80
2023/09/20 07:12:38;;;;;;;2.77;1.60;;;;;;;;;;6168264;28;20043;-80
2023/09/20 07:15:42;;;;;;;3.53;1.70;;;;;;;;;;6170004;28;20510;-82
2023/09/20 07:18:44;;;;;;;3.03;1.83;;;;;;;;;;6183157;28;20054;-81
2023/09/20 07:21:46;;;;;;;4.55;1.80;;;;;;;;;;6181544;28;20093;-79
2023/09/20 07:24:48;;;;;;;3.78;1.75;;;;;;;;;;6170183;28;20046;-81
2023/09/20 07:27:50;;;;;;;6.00;1.70;;;;;;;;;;6163731;28;20053;-80
2023/09/20 07:30:55;;;;;;;3.50;1.77;;;;;;;;;;6172945;28;20575;-81
2023/09/20 07:33:58;;;;;;;2.97;2.03;;;;;;;;;;6170782;28;20063;-81
2023/09/20 07:37:00;;;;;;;4.55;1.60;;;;;;;;;;6178165;28;20165;-81
2023/09/20 07:40:03;;;;;;;4.03;1.52;;;;;;;;;;6178259;28;20065;-81
2023/09/20 07:43:06;;;;;;;3.50;1.35;;;;;;;;;;6172637;28;20042;-78
2023/09/20 07:46:24;;;;;;;3.30;1.50;;;;;;;;;;6179768;28;20515;-79
2023/09/20 07:49:26;;;;;;;4.32;1.33;;;;;;;;;;6180708;28;20054;-81
2023/09/20 07:52:27;;;;;;;2.63;1.50;;;;;;;;;;6173585;28;20094;-80
2023/09/20 07:55:30;;;;;;;6.20;1.52;;;;;;;;;;6167204;28;20039;-80
2023/09/20 07:58:34;;;;;;;3.83;1.27;;;;;;;;;;6156588;28;20066;-80
2023/09/20 08:01:36;;;;;;;4.45;1.40;;;;;;;;;;6173746;28;20053;-80
2023/09/20 08:04:38;;;;;;;2.25;1.23;;;;;;;;;;6172849;28;20055;-81
2023/09/20 08:07:40;;;;;;;3.13;1.60;;;;;;;;;;6177163;28;20046;-81
2023/09/20 08:10:44;;;;;;;3.70;1.50;;;;;;;;;;6166474;28;20815;-80
2023/09/20 08:14:04;;;;;;;2.17;1.23;;;;;;;;;;6158082;28;20046;-80
2023/09/20 08:20:26;;;;;;;2.20;1.40;;;;;;;;;;6175644;28;20055;-80
2023/09/20 09:00:21;;;;;;;1.80;1.38;;;;;;;;;;6172064;28;20523;-81
2023/09/20 09:03:24;;;;;;;3.38;1.60;;;;;;;;;;6175134;28;20046;-82
2023/09/20 09:06:26;;;;;;;;;;;;;;;;;;6176251;28;20057;-82
2023/09/20 09:09:28;;;;;;;3.70;1.38;;;;;;;;;;6179243;28;19922;-82
2023/09/20 09:12:30;;;;;;;2.88;1.50;;;;;;;;;;6173284;28;20058;-81
2023/09/20 09:15:32;;;;;;;4.07;1.50;;;;;;;;;;6185335;28;20049;-80
2023/09/20 09:18:34;;;;;;;2.85;1.45;;;;;;;;;;6181837;28;20408;-82
2023/09/20 09:21:36;;;;;;;2.03;1.60;;;;;;;;;;6184787;28;20053;-81
2023/09/20 09:24:45;;;;;;;2.15;1.50;;;;;;;;;;6180202;28;20105;-82
2023/09/20 09:27:47;;;;;;;3.72;1.70;;;;;;;;;;6171520;28;20038;-80
2023/09/20 09:30:50;;;;;;;1.90;1.40;;;;;;;;;;6179653;28;20051;-82
2023/09/20 09:33:54;;;;;;;5.57;1.70;;;;;;;;;;6174289;28;20500;-82
2023/09/20 09:36:57;;;;;;;2.60;1.42;;;;;;;;;;6179403;28;20046;-81
2023/09/20 09:40:00;;;;;;;3.75;1.60;;;;;;;;;;6174857;28;20837;-81
2023/09/20 09:43:15;;;;;;;2.97;1.55;;;;;;;;;;6169941;28;20043;-81
2023/09/20 09:46:17;;;;;;;2.90;1.48;;;;;;;;;;6171411;28;20046;-80
2023/09/20 09:49:20;;;;;;;1.83;1.42;;;;;;;;;;6178789;28;20053;-81
2023/09/20 09:52:23;;;;;;;1.42;1.33;;;;;;;;;;6183921;28;20093;-82
2023/09/20 09:55:25;;;;;;;2.35;1.73;;;;;;;;;;6175232;28;20440;-81
2023/09/20 09:58:27;;;;;;;3.53;1.50;;;;;;;;;;6165193;28;20057;-81
2023/09/20 10:01:29;;;;;;;1.73;1.40;;;;;;;;;;6161266;28;20505;-82
2023/09/20 10:04:32;;;;;;;;;;;;;;;;;;6169335;28;20058;-81
2023/09/20 10:07:41;;;;;;;1.98;1.40;;;;;;;;;;6180362;28;19928;-81
2023/09/20 10:10:44;;;;;;;3.15;1.55;;;;;;;;;;6169834;28;20046;-82
2023/09/20 10:13:55;;;;;;;3.60;1.60;;;;;;;;;;6159397;28;20057;-81
2023/09/20 10:16:57;;;;;;;3.15;1.40;;;;;;;;;;6173065;28;20117;-81
2023/09/20 10:19:59;;;;;;;4.15;1.63;;;;;;;;;;6177504;28;20047;-81
2023/09/20 10:23:04;;;;;;;1.97;1.37;;;;;;;;;;6171442;28;20046;-82
2023/09/20 10:26:12;;;;;;;3.95;1.48;;;;;;;;;;6177575;28;20054;-81
2023/09/20 10:29:27;;;;;;;3.72;1.55;;;;;;;;;;6177583;28;20042;-82
2023/09/20 10:32:59;;;;;;;3.17;1.52;;;;;;;;;;6175930;28;20051;-79
2023/09/20 10:36:06;;;;;;;3.47;1.50;;;;;;;;;;6184022;28;20539;-80
2023/09/20 10:39:18;;;;;;;3.30;1.20;;;;;;;;;;6176760;28;20046;-80
2023/09/20 10:42:19;;;;;;;1.67;1.20;;;;;;;;;;6175819;28;20078;-83
2023/09/20 10:45:22;;;;;;;1.60;1.23;;;;;;;;;;6179660;28;20043;-82
2023/09/20 10:48:26;;;;;;;3.50;1.27;;;;;;;;;;6182530;28;20050;-81
2023/09/20 10:51:48;;;;;;;1.95;1.25;;;;;;;;;;6183027;28;20130;-81
2023/09/20 10:54:50;;;;;;;;;;;;;;;;;;6162457;28;20166;-82
2023/09/20 10:57:56;;;;;;;2.30;1.80;;;;;;;;;;6182008;28;19922;-81
2023/09/20 11:00:58;;;;;;;2.05;1.38;;;;;;;;;;6183590;28;20053;-81
2023/09/20 11:04:05;;;;;;;2.53;1.67;;;;;;;;;;6177518;28;20042;-81
2023/09/20 11:07:09;;;;;;;5.28;1.58;;;;;;;;;;6172893;28;20054;-81
2023/09/20 11:10:13;;;;;;;1.88;1.38;;;;;;;;;;6174867;28;20413;-81
2023/09/20 11:13:15;;;;;;;2.80;1.40;;;;;;;;;;6182946;28;20057;-81
2023/09/20 11:16:21;;;;;;;3.30;1.27;;;;;;;;;;6179593;28;20102;-82
2023/09/20 11:19:23;;;;;;;2.15;1.48;;;;;;;;;;6172210;28;20042;-81
2023/09/20 11:22:26;;;;;;;3.08;1.50;;;;;;;;;;6182488;28;20130;-82
2023/09/20 11:25:31;;;;;;;2.47;1.50;;;;;;;;;;6177285;28;20051;-81
2023/09/20 11:28:34;;;;;;;3.38;1.88;;;;;;;;;;6177899;28;20046;-81
2023/09/20 11:31:37;;;;;;;1.98;1.40;;;;;;;;;;6189560;28;20039;-81
2023/09/20 11:34:44;;;;;;;3.45;1.40;;;;;;;;;;6196340;28;20050;-81
2023/09/20 11:37:46;;;;;;;3.55;1.42;;;;;;;;;;6178516;28;20059;-81
2023/09/20 11:40:48;;;;;;;2.20;1.20;;;;;;;;;;6174126;28;20038;-81
2023/09/20 11:43:56;;;;;;;3.15;1.45;;;;;;;;;;6166593;28;20497;-81
2023/09/20 11:47:00;;;;;;;1.58;1.00;;;;;;;;;;6188512;28;20057;-81
2023/09/20 11:50:04;;;;;;;3.10;1.27;;;;;;;;;;6163526;28;20042;-81
2023/09/20 11:53:06;;;;;;;2.90;1.10;;;;;;;;;;6180872;28;20047;-82
2023/09/20 11:56:08;;;;;;;2.83;1.50;;;;;;;;;;6177620;28;20046;-81
2023/09/20 11:59:10;;;;;;;1.87;1.00;;;;;;;;;;6173007;28;20047;-81
2023/09/20 12:02:13;;;;;;;4.97;1.40;;;;;;;;;;6174549;28;20650;-81
2023/09/20 12:05:17;;;;;;;2.00;1.20;;;;;;;;;;6181030;28;20133;-81
2023/09/20 12:08:19;;;;;;;2.33;1.30;;;;;;;;;;6182637;28;20050;-81
2023/09/20 12:11:22;;;;;;;2.77;1.30;;;;;;;;;;6181374;28;20504;-81
2023/09/20 12:14:24;;;;;;;3.08;1.42;;;;;;;;;;6172716;28;20065;-82
2023/09/20 12:17:30;;;;;;;5.15;1.52;;;;;;;;;;6179866;28;20078;-80
2023/09/20 12:20:35;;;;;;;2.58;1.05;;;;;;;;;;6179638;28;20050;-80
2023/09/20 12:23:40;;;;;;;1.80;1.30;;;;;;;;;;6179523;28;20058;-82
2023/09/20 12:26:42;;;;;;;2.60;1.20;;;;;;;;;;6170156;28;20039;-81
2023/09/20 12:29:44;;;;;;;1.30;0.90;;;;;;;;;;6160177;28;20054;-81
2023/09/20 12:32:46;;;;;;;1.75;1.27;;;;;;;;;;6175947;28;20066;-82
2023/09/20 12:35:49;;;;;;;1.17;0.90;;;;;;;;;;6183019;28;20634;-81
2023/09/20 12:38:51;;;;;;;3.25;1.17;;;;;;;;;;6163022;28;20042;-81
2023/09/20 12:41:54;;;;;;;2.75;1.10;;;;;;;;;;6179510;28;20047;-82
2023/09/20 12:44:58;;;;;;;2.70;1.10;;;;;;;;;;6174903;28;20099;-81
2023/09/20 12:47:59;;;;;;;1.30;1.10;;;;;;;;;;6179109;28;20071;-81
2023/09/20 12:51:01;;;;;;;3.28;1.20;;;;;;;;;;6188225;28;20478;-81
2023/09/20 12:54:06;;;;;;;5.53;1.23;;;;;;;;;;6168423;28;20043;-81
2023/09/20 12:57:07;;;;;;;2.17;1.05;;;;;;;;;;6177639;28;20045;-81
2023/09/20 13:00:11;;;;;;;2.77;1.10;;;;;;;;;;6171295;28;20047;-81
2023/09/20 13:03:14;;;;;;;2.53;1.10;;;;;;;;;;6174236;28;20058;-81
2023/09/20 13:06:17;;;;;;;3.75;1.50;;;;;;;;;;6158852;28;20043;-82
2023/09/20 13:09:19;;;;;;;2.15;1.10;;;;;;;;;;6177083;28;20050;-82
2023/09/20 13:12:21;;;;;;;2.83;0.90;;;;;;;;;;6165841;28;20043;-80
2023/09/20 13:15:23;;;;;;;1.67;1.10;;;;;;;;;;6157813;28;20055;-80
2023/09/20 13:18:25;;;;;;;1.83;0.82;;;;;;;;;;6162264;28;20052;-80
2023/09/20 13:21:28;;;;;;;3.55;1.13;;;;;;;;;;6173150;28;20054;-80
2023/09/20 13:24:31;;;;;;;;;;;;;;;;;;6161407;28;20062;-80
2023/09/20 13:27:33;;;;;;;2.35;1.20;;;;;;;;;;6166138;28;20403;-80
2023/09/20 13:30:37;;;;;;;1.40;0.98;;;;;;;;;;6171501;28;20056;-80
2023/09/20 13:33:39;;;;;;;2.08;1.05;;;;;;;;;;6178880;28;20045;-80
2023/09/20 13:36:44;;;;;;;2.72;0.90;;;;;;;;;;6161273;28;20289;-80
2023/09/20 13:39:46;;;;;;;1.45;1.20;;;;;;;;;;6173168;28;20046;-84
2023/09/20 13:42:48;;;;;;;1.48;1.00;;;;;;;;;;6152017;28;20101;-82
2023/09/20 13:45:49;;;;;;;2.90;1.20;;;;;;;;;;6170226;28;20636;-81
2023/09/20 13:48:51;;;;;;;1.73;0.90;;;;;;;;;;6169566;28;20053;-81
2023/09/20 13:51:53;;;;;;;1.50;0.98;;;;;;;;;;6195306;28;20055;-81
2023/09/20 13:54:55;;;;;;;1.10;0.90;;;;;;;;;;6184309;28;20432;-81
2023/09/20 13:57:59;;;;;;;2.53;1.10;;;;;;;;;;6179886;28;20539;-81
2023/09/20 14:01:03;;;;;;;2.33;1.30;;;;;;;;;;6188120;28;20472;-81
2023/09/20 14:04:06;;;;;;;3.17;1.17;;;;;;;;;;6179710;28;20050;-81
2023/09/20 14:07:15;;;;;;;2.10;1.17;;;;;;;;;;6175662;28;20043;-81
2023/09/20 14:10:21;;;;;;;3.47;1.58;;;;;;;;;;6183563;28;20062;-80
2023/09/20 14:13:24;;;;;;;1.98;1.00;;;;;;;;;;6177594;28;20046;-81
2023/09/20 14:16:26;;;;;;;;;;;;;;;;;;6189634;28;20045;-82
2023/09/20 14:19:28;;;;;;;3.30;1.03;;;;;;;;;;6186459;28;19953;-82
2023/09/20 14:22:29;;;;;;;1.53;1.07;;;;;;;;;;6178052;28;20053;-81
2023/09/20 14:25:31;;;;;;;3.40;1.20;;;;;;;;;;6180233;28;21064;-81
2023/09/20 14:28:33;;;;;;;2.40;1.00;;;;;;;;;;6175654;28;21022;-82
2023/09/20 14:31:35;;;;;;;1.40;1.10;;;;;;;;;;6170116;28;20481;-82
2023/09/20 14:34:37;;;;;;;2.20;1.30;;;;;;;;;;6179007;28;20515;-82
2023/09/20 14:37:43;;;;;;;1.27;1.10;;;;;;;;;;6176128;28;20116;-82
2023/09/20 14:40:45;;;;;;;1.73;1.00;;;;;;;;;;6169039;28;20046;-81
2023/09/20 14:43:47;;;;;;;2.03;1.20;;;;;;;;;;6171000;28;20046;-82
2023/09/20 14:46:48;;;;;;;3.20;1.33;;;;;;;;;;6173533;28;20121;-83
2023/09/20 14:49:50;;;;;;;3.25;1.27;;;;;;;;;;6172875;28;20531;-83
2023/09/20 14:52:53;;;;;;;1.23;0.90;;;;;;;;;;6171845;28;20409;-83
2023/09/20 14:55:55;;;;;;;2.50;1.20;;;;;;;;;;6169423;28;20054;-83
2023/09/20 14:58:56;;;;;;;2.70;1.15;;;;;;;;;;6170862;28;20042;-83
2023/09/20 15:01:58;;;;;;;1.97;1.23;;;;;;;;;;6177329;28;20499;-84
2023/09/20 15:05:01;;;;;;;1.60;1.10;;;;;;;;;;6180594;28;20050;-84
2023/09/20 15:08:03;;;;;;;2.35;1.05;;;;;;;;;;6167008;28;20070;-84
2023/09/20 15:11:04;;;;;;;1.40;1.02;;;;;;;;;;6165053;28;20527;-83
2023/09/20 15:14:06;;;;;;;1.80;1.00;;;;;;;;;;6170953;28;20047;-84
2023/09/20 15:17:08;;;;;;;3.97;1.00;;;;;;;;;;6172210;28;20046;-84
2023/09/20 15:20:11;;;;;;;2.73;1.03;;;;;;;;;;6166962;28;20215;-83
2023/09/20 15:23:12;;;;;;;;;;;;;;;;;;6171216;28;20469;-84
2023/09/20 15:26:16;;;;;;;1.58;1.00;;;;;;;;;;6176340;28;19922;-83
2023/09/20 15:29:18;;;;;;;2.88;1.38;;;;;;;;;;6177672;28;20050;-84
2023/09/20 15:32:20;;;;;;;2.25;1.02;;;;;;;;;;6179847;28;20043;-85
2023/09/20 15:35:21;;;;;;;4.03;1.50;;;;;;;;;;6183390;28;20054;-84
2023/09/20 15:38:24;;;;;;;2.33;1.30;;;;;;;;;;6179013;28;20445;-84
2023/09/20 15:41:26;;;;;;;2.00;1.13;;;;;;;;;;6178264;28;20445;-83
2023/09/20 15:44:28;;;;;;;2.70;1.20;;;;;;;;;;6177599;28;20050;-85
2023/09/20 15:47:30;;;;;;;1.90;1.08;;;;;;;;;;6182011;28;20129;-84
2023/09/20 15:50:33;;;;;;;;;;;;;;;;;;6181239;28;20435;-84
2023/09/20 15:53:35;;;;;;;2.30;1.13;;;;;;;;;;6181442;28;19933;-84
2023/09/20 15:56:38;;;;;;;1.90;1.20;;;;;;;;;;6181088;28;20057;-84
2023/09/20 15:59:40;;;;;;;2.40;1.35;;;;;;;;;;6179312;28;20437;-84
2023/09/20 16:02:42;;;;;;;1.70;1.13;;;;;;;;;;6171441;28;20125;-84
2023/09/20 16:05:44;;;;;;;1.83;1.10;;;;;;;;;;6172909;28;21010;-84
2023/09/20 16:08:46;;;;;;;2.22;1.27;;;;;;;;;;6191509;28;20057;-85
2023/09/20 16:11:49;;;;;;;2.28;1.20;;;;;;;;;;6173350;28;20050;-85
2023/09/20 16:14:52;;;;;;;3.75;1.35;;;;;;;;;;6173974;28;20133;-84
2023/09/20 16:17:54;;;;;;;1.40;1.05;;;;;;;;;;6171491;28;20052;-84
2023/09/20 16:20:56;;;;;;;3.28;1.38;;;;;;;;;;6183231;28;20038;-85
2023/09/20 16:23:58;;;;;;;2.75;1.38;;;;;;;;;;6176404;28;20531;-85
2023/09/20 16:26:59;;;;;;;2.27;1.20;;;;;;;;;;6176212;28;20038;-85
2023/09/20 16:30:02;;;;;;;2.70;1.73;;;;;;;;;;6176180;28;20053;-84
2023/09/20 16:33:07;;;;;;;2.78;1.38;;;;;;;;;;6182302;28;20059;-85
2023/09/20 16:36:10;;;;;;;2.25;1.40;;;;;;;;;;6187003;28;20492;-85
2023/09/20 16:39:12;;;;;;;;;;;;;;;;;;6161744;28;20047;-84
2023/09/20 16:42:16;;;;;;;3.72;1.13;;;;;;;;;;6162291;28;20363;-86
2023/09/20 16:45:18;;;;;;;1.63;1.17;;;;;;;;;;6171594;28;20043;-84
2023/09/20 16:48:20;;;;;;;;;;;;;;;;;;6175642;28;20525;-84
2023/09/20 16:51:23;;;;;;;2.58;1.10;;;;;;;;;;6180374;28;19922;-84
2023/09/20 16:54:25;;;;;;;2.22;1.33;;;;;;;;;;6177451;28;20047;-83
2023/09/20 16:57:27;;;;;;;2.38;1.20;;;;;;;;;;6184282;28;20061;-85
2023/09/20 17:00:31;;;;;;;2.38;1.30;;;;;;;;;;6186048;28;20042;-84
2023/09/20 17:03:33;;;;;;;1.73;1.30;;;;;;;;;;6176852;28;20527;-85
2023/09/20 17:06:36;;;;;;;3.85;1.33;;;;;;;;;;6210004;22;20133;-80
2023/09/20 17:09:37;;;;;;;2.38;1.10;;;;;;;;;;6196576;28;20050;-82
2023/09/20 17:12:39;;;;;;;4.03;1.50;;;;;;;;;;6197043;28;20050;-83
2023/09/20 17:15:41;;;;;;;2.17;1.48;;;;;;;;;;6181536;28;20042;-85
2023/09/20 17:18:43;;;;;;;2.80;1.40;;;;;;;;;;6199756;28;20042;-84
2023/09/20 17:21:45;;;;;;;;;;;;;;;;;;6195968;28;20054;-82
2023/09/20 17:24:48;;;;;;;3.08;1.48;;;;;;;;;;6194337;28;20380;-81
2023/09/20 17:27:50;;;;;;;;;;;;;;;;;;6168671;28;20042;-83
2023/09/20 17:30:52;;;;;;;3.55;1.60;;;;;;;;;;6184190;28;20008;-83
2023/09/20 17:33:55;;;;;;;3.85;1.55;;;;;;;;;;6192414;28;20052;-82
2023/09/20 17:36:57;;;;;;;4.00;1.88;;;;;;;;;;6193395;28;20046;-82
2023/09/20 17:40:00;;;;;;;5.45;2.17;;;;;;;;;;6198902;28;20491;-83
2023/09/20 17:43:05;;;;;;;5.40;3.70;;;;;;;;;;6194837;28;20154;-84
2023/09/20 17:46:09;;;;;;;5.60;2.90;;;;;;;;;;6187524;28;20046;-84
2023/09/20 17:49:11;;;;;;;6.30;2.50;;;;;;;;;;6172187;28;20046;-83
2023/09/20 17:52:14;;;;;;;5.20;2.47;;;;;;;;;;6183639;28;20120;-82
2023/09/20 17:55:17;;;;;;;3.47;2.17;;;;;;;;;;6178257;28;20053;-84
2023/09/20 17:58:19;;;;;;;4.30;2.40;;;;;;;;;;6183536;28;20050;-82
2023/09/20 18:01:21;;;;;;;5.07;1.80;;;;;;;;;;6193893;28;20039;-83
2023/09/20 18:04:23;;;;;;;3.80;1.50;;;;;;;;;;6170896;28;20141;-86
2023/09/20 18:07:27;;;;;;;4.25;1.58;;;;;;;;;;6189706;28;21385;-83
2023/09/20 18:10:29;;;;;;;2.30;1.38;;;;;;;;;;6177002;28;20046;-84
2023/09/20 18:13:31;;;;;;;2.97;1.65;;;;;;;;;;6196473;28;20055;-84
2023/09/20 18:16:32;;;;;;;2.80;1.70;;;;;;;;;;6181940;28;20569;-86
2023/09/20 18:19:34;;;;;;;4.40;1.40;;;;;;;;;;6181449;28;20065;-84
2023/09/20 18:22:37;;;;;;;2.25;1.40;;;;;;;;;;6185362;28;20062;-83
2023/09/20 18:25:39;;;;;;;2.22;1.70;;;;;;;;;;6178046;28;20621;-84
2023/09/20 18:28:43;;;;;;;1.85;1.50;;;;;;;;;;6184731;28;20145;-83
2023/09/20 18:31:46;;;;;;;3.40;1.70;;;;;;;;;;6183717;28;20047;-82
2023/09/20 18:34:49;;;;;;;4.93;2.08;;;;;;;;;;6186356;28;20046;-83
2023/09/20 18:37:51;;;;;;;2.95;1.73;;;;;;;;;;6187313;28;20590;-84
2023/09/20 18:40:53;;;;;;;7.13;1.98;;;;;;;;;;6179369;28;20220;-83
2023/09/20 18:43:55;;;;;;;3.38;1.50;;;;;;;;;;6194937;28;20065;-85
2023/09/20 18:46:58;;;;;;;3.38;1.60;;;;;;;;;;6199123;28;20050;-85
2023/09/20 18:50:03;;;;;;;2.85;1.50;;;;;;;;;;6199672;28;20055;-83
2023/09/20 18:53:04;;;;;;;4.03;1.85;;;;;;;;;;6195278;28;20042;-82
2023/09/20 18:56:06;;;;;;;3.35;1.67;;;;;;;;;;6197726;28;20058;-82
2023/09/20 18:59:08;;;;;;;3.30;1.67;;;;;;;;;;6200785;28;20046;-83
2023/09/20 19:02:13;;;;;;;3.85;1.83;;;;;;;;;;6190455;28;20055;-83
2023/09/20 19:05:16;;;;;;;5.40;2.47;;;;;;;;;;6191132;28;20047;-83